Time;durP1;ratioP1;P1;durP2;ratioP2;P2;SDS_P1;SDS_P2;PMS_P1;PMS_P2;Temp;Humidity;BMP_temperature;BMP_pressure;BME280_temperature;BME280_humidity;BME280_pressure;Samples;Min_cycle;Max_cycle;Signal;HPM_P1;HPM_P2
2021/08/31 00:01:37;;;;;;;13.25;9.73;;;15.80;99.90;;;;;;12508994;28;20139;-37
2021/08/31 00:07:40;;;;;;;16.75;9.77;;;15.80;99.90;;;;;;12512601;28;20451;-37
2021/08/31 00:13:42;;;;;;;14.73;10.13;;;15.80;99.90;;;;;;12518107;28;20132;-39
2021/08/31 00:19:45;;;;;;;12.45;9.90;;;15.80;99.90;;;;;;12518306;28;20622;-37
2021/08/31 00:25:52;;;;;;;11.80;9.52;;;15.70;99.90;;;;;;12516303;28;20144;-39
2021/08/31 00:31:54;;;;;;;13.10;10.02;;;15.60;99.90;;;;;;12517632;28;20053;-37
2021/08/31 00:38:00;;;;;;;12.57;9.75;;;15.60;99.90;;;;;;12511384;28;20064;-37
2021/08/31 00:44:03;;;;;;;16.10;9.70;;;15.70;99.90;;;;;;12513083;28;20108;-38
2021/08/31 00:50:05;;;;;;;14.13;9.82;;;15.70;99.90;;;;;;12514472;28;20048;-37
2021/08/31 00:56:10;;;;;;;11.82;9.63;;;15.70;99.90;;;;;;12510619;28;20081;-37
2021/08/31 01:02:12;;;;;;;12.13;10.00;;;15.60;99.90;;;;;;12515526;28;20037;-37
2021/08/31 01:08:14;;;;;;;11.98;9.57;;;15.60;99.90;;;;;;12519132;28;20053;-37
2021/08/31 01:14:24;;;;;;;12.52;10.55;;;15.60;99.90;;;;;;12513978;28;20049;-37
2021/08/31 01:20:29;;;;;;;13.55;10.32;;;15.50;99.90;;;;;;12517882;28;20458;-38
2021/08/31 01:26:32;;;;;;;13.93;10.23;;;15.60;99.90;;;;;;12513647;28;20175;-37
2021/08/31 01:32:34;;;;;;;12.23;10.63;;;15.60;99.90;;;;;;12513362;28;20068;-37
2021/08/31 01:38:35;;;;;;;16.10;11.23;;;15.60;99.90;;;;;;12519774;28;20087;-37
2021/08/31 01:44:39;;;;;;;15.60;11.85;;;15.60;99.90;;;;;;12526820;28;20048;-37
2021/08/31 01:50:43;;;;;;;13.85;10.60;;;15.60;99.90;;;;;;12529506;28;20056;-37
2021/08/31 01:56:48;;;;;;;14.20;11.40;;;15.50;99.90;;;;;;12530656;28;20067;-37
2021/08/31 02:02:50;;;;;;;17.17;12.90;;;15.40;99.90;;;;;;12528309;28;20045;-37
2021/08/31 02:08:52;;;;;;;17.30;12.40;;;15.10;99.90;;;;;;12522304;28;20056;-37
2021/08/31 02:14:54;;;;;;;15.82;11.73;;;15.20;99.90;;;;;;12524123;28;20156;-36
2021/08/31 02:20:57;;;;;;;23.05;12.75;;;15.20;99.90;;;;;;12516518;28;20491;-37
2021/08/31 02:26:59;;;;;;;15.82;11.57;;;15.00;99.90;;;;;;12525829;28;20091;-37
2021/08/31 02:33:06;;;;;;;14.75;11.45;;;14.80;99.90;;;;;;12520662;28;20060;-37
2021/08/31 02:39:09;;;;;;;16.17;12.00;;;14.90;99.90;;;;;;12519381;28;20485;-36
2021/08/31 02:45:11;;;;;;;18.60;11.30;;;14.90;99.90;;;;;;12516142;28;20056;-37
2021/08/31 02:51:13;;;;;;;21.63;13.38;;;14.90;99.90;;;;;;12518909;28;20077;-37
2021/08/31 02:57:15;;;;;;;18.50;12.95;;;14.80;99.90;;;;;;12517550;28;20049;-37
2021/08/31 03:03:18;;;;;;;18.20;13.38;;;14.80;99.90;;;;;;12525523;28;20107;-37
2021/08/31 03:09:20;;;;;;;23.67;15.10;;;14.70;99.90;;;;;;12518484;28;20469;-36
2021/08/31 03:15:22;;;;;;;18.90;14.20;;;14.70;99.90;;;;;;12498364;28;20396;-38
2021/08/31 03:21:24;;;;;;;23.20;17.02;;;14.70;99.90;;;;;;12522527;28;20413;-38
2021/08/31 03:27:26;;;;;;;22.92;17.00;;;14.70;99.90;;;;;;12509524;28;20049;-37
2021/08/31 03:33:29;;;;;;;25.15;17.75;;;14.60;99.90;;;;;;12517542;28;20083;-37
2021/08/31 03:39:36;;;;;;;22.33;18.70;;;14.50;99.90;;;;;;12518683;28;20051;-37
2021/08/31 03:45:38;;;;;;;25.80;20.40;;;14.50;99.90;;;;;;12521458;28;20045;-39
2021/08/31 03:51:40;;;;;;;25.55;19.33;;;14.70;99.90;;;;;;12515286;28;20521;-37
2021/08/31 03:57:43;;;;;;;28.63;20.25;;;14.50;99.90;;;;;;12518157;28;20397;-37
2021/08/31 04:03:45;;;;;;;33.22;20.73;;;14.60;99.90;;;;;;12490487;28;20777;-37
2021/08/31 04:09:47;;;;;;;27.92;19.80;;;14.50;99.90;;;;;;12530020;28;20045;-37
2021/08/31 04:16:00;;;;;;;26.58;20.27;;;14.60;99.90;;;;;;12514054;28;20080;-37
2021/08/31 04:22:31;;;;;;;;;;;14.60;99.90;;;;;;12533550;28;20036;-37
2021/08/31 04:29:12;;;;;;;35.53;19.23;;;14.60;99.90;;;;;;12530846;28;20444;-37
2021/08/31 04:35:54;;;;;;;98.50;16.98;;;14.60;99.90;;;;;;12506366;28;20056;-38
2021/08/31 04:42:30;;;;;;;143.75;20.15;;;14.40;99.90;;;;;;12519068;28;20052;-37
2021/08/31 04:48:56;;;;;;;294.48;21.45;;;14.10;99.90;;;;;;12522956;28;20522;-37
2021/08/31 04:55:23;;;;;;;187.80;19.70;;;14.10;99.90;;;;;;12520670;28;20052;-39
2021/08/31 05:01:33;;;;;;;153.68;20.63;;;14.10;99.90;;;;;;12528202;28;20550;-37
2021/08/31 05:07:44;;;;;;;151.88;22.38;;;14.10;99.90;;;;;;12523737;28;20536;-37
2021/08/31 05:13:57;;;;;;;89.20;22.77;;;14.00;99.90;;;;;;12521767;28;20056;-37
2021/08/31 05:20:11;;;;;;;77.72;26.30;;;14.00;99.90;;;;;;12534975;28;20056;-37
2021/08/31 05:26:21;;;;;;;75.15;28.27;;;14.00;99.90;;;;;;12497159;28;20057;-37
2021/08/31 05:32:36;;;;;;;41.65;24.40;;;14.10;99.90;;;;;;12528433;28;20773;-37
2021/08/31 05:38:58;;;;;;;40.13;23.98;;;14.20;99.90;;;;;;12535774;28;20416;-38
2021/08/31 05:45:09;;;;;;;33.90;20.77;;;14.30;99.90;;;;;;12521581;28;20056;-37
2021/08/31 05:51:21;;;;;;;31.77;20.50;;;14.30;99.90;;;;;;12524259;28;20390;-37
2021/08/31 05:57:32;;;;;;;32.15;20.70;;;14.30;99.90;;;;;;12526018;28;20102;-37
2021/08/31 06:03:49;;;;;;;31.55;20.38;;;14.30;99.90;;;;;;12531436;28;20049;-41
2021/08/31 06:09:55;;;;;;;27.15;18.48;;;14.40;99.90;;;;;;12531701;28;20172;-37
2021/08/31 06:16:02;;;;;;;;;;;14.40;99.90;;;;;;12519863;28;20497;-39
2021/08/31 06:22:21;;;;;;;26.80;19.48;;;14.40;99.90;;;;;;12513793;28;19971;-38
2021/08/31 06:28:26;;;;;;;30.27;18.65;;;14.40;99.90;;;;;;12528941;28;20046;-37
2021/08/31 06:34:29;;;;;;;27.02;18.83;;;14.40;99.90;;;;;;12531700;28;20074;-37
2021/08/31 06:40:32;;;;;;;29.98;18.70;;;14.60;99.90;;;;;;12531238;28;20559;-37
2021/08/31 06:46:38;;;;;;;27.60;18.90;;;14.70;99.90;;;;;;12526934;28;20037;-38
2021/08/31 06:52:47;;;;;;;25.90;16.90;;;14.70;99.90;;;;;;12515949;28;20041;-38
2021/08/31 06:58:54;;;;;;;25.85;17.38;;;14.60;99.90;;;;;;12524008;28;20053;-38
2021/08/31 07:05:01;;;;;;;28.48;17.55;;;14.70;99.90;;;;;;12525613;28;20876;-37
2021/08/31 07:11:07;;;;;;;22.70;16.50;;;14.70;99.90;;;;;;12523988;28;20052;-41
2021/08/31 07:17:10;;;;;;;22.47;17.37;;;14.80;99.90;;;;;;12525512;28;20072;-37
2021/08/31 07:23:14;;;;;;;30.00;21.50;;;14.80;99.90;;;;;;12526348;28;20049;-37
2021/08/31 07:29:22;;;;;;;29.70;20.85;;;14.80;99.90;;;;;;12521091;28;20140;-38
2021/08/31 07:35:27;;;;;;;28.02;19.23;;;14.80;99.90;;;;;;12510288;28;20055;-36
2021/08/31 07:41:29;;;;;;;31.40;21.35;;;14.90;99.90;;;;;;12516812;28;20056;-39
2021/08/31 07:47:32;;;;;;;29.95;21.27;;;15.10;99.90;;;;;;12521259;28;20071;-37
2021/08/31 07:53:36;;;;;;;31.55;22.15;;;15.20;99.90;;;;;;12515796;28;20064;-38
2021/08/31 07:59:39;;;;;;;28.30;21.65;;;15.30;99.90;;;;;;12522050;28;20041;-38
2021/08/31 08:05:43;;;;;;;30.60;22.48;;;15.40;99.90;;;;;;12522439;28;20136;-37
2021/08/31 08:11:45;;;;;;;30.98;22.90;;;15.50;99.90;;;;;;12522880;28;20045;-37
2021/08/31 08:17:50;;;;;;;29.70;21.35;;;15.80;99.90;;;;;;12518252;28;20102;-38
2021/08/31 08:23:53;;;;;;;23.85;18.60;;;15.90;99.90;;;;;;12519141;28;20044;-38
2021/08/31 08:29:55;;;;;;;22.77;17.42;;;15.90;99.90;;;;;;12523296;28;20053;-38
2021/08/31 08:36:00;;;;;;;21.25;16.98;;;15.90;99.90;;;;;;12521406;28;20045;-37
2021/08/31 08:42:09;;;;;;;22.60;16.02;;;16.10;99.90;;;;;;12520328;28;20053;-37
2021/08/31 08:48:30;;;;;;;20.15;14.20;;;16.10;99.90;;;;;;12512817;28;20052;-38
2021/08/31 08:54:43;;;;;;;19.95;13.85;;;16.30;99.90;;;;;;12509524;28;20052;-38
2021/08/31 09:01:12;;;;;;;18.63;12.90;;;16.60;99.90;;;;;;12518255;28;20045;-38
2021/08/31 09:07:23;;;;;;;18.23;12.85;;;16.40;99.90;;;;;;12513750;28;20409;-38
2021/08/31 09:13:27;;;;;;;15.80;12.25;;;16.50;99.90;;;;;;12519117;28;20060;-37
2021/08/31 09:19:34;;;;;;;16.02;12.57;;;16.60;99.90;;;;;;12519994;28;20053;-39
2021/08/31 09:25:44;;;;;;;15.63;12.23;;;16.60;99.90;;;;;;12518828;28;20568;-38
2021/08/31 09:31:53;;;;;;;16.33;13.25;;;16.70;99.90;;;;;;12518260;28;20048;-38
2021/08/31 09:38:03;;;;;;;16.85;11.95;;;17.00;99.90;;;;;;12517331;28;20049;-39
2021/08/31 09:44:25;;;;;;;14.90;10.93;;;17.10;99.90;;;;;;12508529;28;20041;-40
2021/08/31 09:50:50;;;;;;;18.30;11.57;;;17.20;99.90;;;;;;12524345;28;20046;-37
2021/08/31 09:56:55;;;;;;;;;;;17.50;99.90;;;;;;12523886;28;20056;-38
2021/08/31 10:03:20;;;;;;;13.57;9.68;;;17.50;99.90;;;;;;12531987;28;19935;-37
2021/08/31 10:09:47;;;;;;;11.38;9.10;;;17.80;99.90;;;;;;12529420;28;20142;-37
2021/08/31 10:16:00;;;;;;;10.70;9.00;;;17.90;99.90;;;;;;12524806;28;20080;-38
2021/08/31 10:22:12;;;;;;;14.32;8.00;;;18.40;99.90;;;;;;12529366;28;20084;-39
2021/08/31 10:28:28;;;;;;;11.15;7.97;;;18.30;99.90;;;;;;12530259;28;20121;-38
2021/08/31 10:34:33;;;;;;;12.20;7.50;;;18.70;99.90;;;;;;12516707;28;20049;-38
2021/08/31 10:40:41;;;;;;;11.48;8.35;;;18.90;99.90;;;;;;12502204;28;20595;-38
2021/08/31 10:46:56;;;;;;;14.85;8.13;;;19.40;99.90;;;;;;12525218;28;20489;-38
2021/08/31 10:53:12;;;;;;;11.77;7.72;;;19.50;99.90;;;;;;12525189;28;20057;-38
2021/08/31 10:59:34;;;;;;;12.65;8.00;;;19.80;99.90;;;;;;12530095;28;20053;-39
2021/08/31 11:05:37;;;;;;;13.95;9.07;;;20.10;99.90;;;;;;12528867;28;20097;-38
2021/08/31 11:11:42;;;;;;;13.03;8.33;;;20.10;99.90;;;;;;12528231;28;20045;-39
2021/08/31 11:17:51;;;;;;;12.43;7.55;;;20.10;99.90;;;;;;12523658;28;20397;-38
2021/08/31 11:24:08;;;;;;;12.77;8.25;;;20.20;99.90;;;;;;12523321;28;20045;-37
2021/08/31 11:30:12;;;;;;;10.95;7.63;;;20.50;99.90;;;;;;12526128;28;20059;-40
2021/08/31 11:36:22;;;;;;;10.07;7.20;;;20.10;99.90;;;;;;12528176;28;20780;-38
2021/08/31 11:42:57;;;;;;;10.73;7.47;;;20.20;99.90;;;;;;12524178;28;20098;-39
2021/08/31 11:49:17;;;;;;;10.02;6.45;;;20.10;99.90;;;;;;12523707;28;20131;-38
2021/08/31 11:55:26;;;;;;;12.45;6.50;;;20.30;99.90;;;;;;12523615;28;20489;-38
2021/08/31 12:01:32;;;;;;;7.88;6.05;;;20.60;99.90;;;;;;12521326;28;20132;-38
2021/08/31 12:07:49;;;;;;;7.80;5.15;;;20.80;99.90;;;;;;12518832;28;20063;-40
2021/08/31 12:13:52;;;;;;;7.43;5.63;;;21.10;99.90;;;;;;12519664;28;20469;-37
2021/08/31 12:20:09;;;;;;;8.43;5.72;;;20.40;99.90;;;;;;12522737;28;20049;-37
2021/08/31 12:26:35;;;;;;;8.57;4.90;;;20.30;99.90;;;;;;12519486;28;20049;-39
2021/08/31 12:32:39;;;;;;;6.85;4.32;;;20.10;99.90;;;;;;12526007;28;20539;-38
2021/08/31 12:38:46;;;;;;;6.32;4.10;;;20.20;99.90;;;;;;12527093;28;20134;-38
2021/08/31 12:44:49;;;;;;;6.53;4.00;;;20.30;99.90;;;;;;12514965;28;20141;-39
2021/08/31 12:50:55;;;;;;;5.60;3.63;;;20.70;99.90;;;;;;12522835;28;20049;-39
2021/08/31 12:57:03;;;;;;;7.82;4.40;;;21.30;99.90;;;;;;12517277;28;20053;-37
2021/08/31 13:03:07;;;;;;;6.68;3.70;;;21.30;99.90;;;;;;12518998;28;20095;-38
2021/08/31 13:09:11;;;;;;;;;;;21.70;99.90;;;;;;12531412;28;20514;-38
2021/08/31 13:15:15;;;;;;;7.00;3.40;;;22.10;99.90;;;;;;12520751;28;19932;-37
2021/08/31 13:21:21;;;;;;;6.55;3.58;;;21.70;99.90;;;;;;12519229;28;20091;-37
2021/08/31 13:27:24;;;;;;;;;;;20.90;99.90;;;;;;12517552;28;20053;-37
2021/08/31 13:33:28;;;;;;;5.68;3.35;;;20.40;99.90;;;;;;12512065;28;19924;-37
2021/08/31 13:39:30;;;;;;;5.55;3.00;;;21.00;99.90;;;;;;12530859;28;20056;-38
2021/08/31 13:45:39;;;;;;;7.53;3.93;;;21.60;99.90;;;;;;12526166;28;20140;-37
2021/08/31 13:52:09;;;;;;;6.70;3.35;;;22.00;99.90;;;;;;12508985;28;20079;-39
2021/08/31 13:58:21;;;;;;;6.43;3.50;;;22.10;99.90;;;;;;12528673;28;20049;-39
2021/08/31 14:04:45;;;;;;;6.22;3.83;;;21.20;99.90;;;;;;12532378;28;20087;-37
2021/08/31 14:10:59;;;;;;;7.13;2.92;;;20.90;99.90;;;;;;12519897;28;20048;-38
2021/08/31 14:17:06;;;;;;;5.03;3.15;;;21.50;99.90;;;;;;12512929;28;20060;-39
2021/08/31 14:23:14;;;;;;;5.80;3.53;;;21.90;99.90;;;;;;12524496;28;20072;-38
2021/08/31 14:29:17;;;;;;;5.38;3.42;;;22.30;99.90;;;;;;12527513;28;20456;-37
2021/08/31 14:35:19;;;;;;;7.18;3.40;;;21.60;99.90;;;;;;12525641;28;20501;-38
2021/08/31 14:41:26;;;;;;;7.45;3.35;;;20.80;99.90;;;;;;12528718;28;20060;-38
2021/08/31 14:47:35;;;;;;;4.88;3.10;;;21.20;99.90;;;;;;12526359;28;20385;-38
2021/08/31 14:53:37;;;;;;;7.50;3.20;;;21.90;99.90;;;;;;12526890;28;20155;-37
2021/08/31 14:59:40;;;;;;;6.13;3.00;;;22.50;99.90;;;;;;12520381;28;20106;-39
2021/08/31 15:05:43;;;;;;;6.95;3.60;;;22.90;99.90;;;;;;12516621;28;20048;-37
2021/08/31 15:11:46;;;;;;;5.85;3.17;;;22.30;99.90;;;;;;12527037;28;20139;-43
2021/08/31 15:17:52;;;;;;;5.68;3.00;;;21.10;99.90;;;;;;12527692;28;20452;-38
2021/08/31 15:23:55;;;;;;;5.03;3.30;;;21.00;99.90;;;;;;12527703;28;20037;-39
2021/08/31 15:29:58;;;;;;;6.55;2.83;;;21.90;99.90;;;;;;12521648;28;20493;-42
2021/08/31 15:36:10;;;;;;;4.13;2.97;;;22.50;99.90;;;;;;12521867;28;20482;-39
2021/08/31 15:42:16;;;;;;;5.70;3.00;;;22.80;99.90;;;;;;12523876;28;20064;-38
2021/08/31 15:48:18;;;;;;;5.63;3.30;;;23.00;99.90;;;;;;12516529;28;20060;-37
2021/08/31 15:54:21;;;;;;;5.70;2.53;;;23.00;99.90;;;;;;12523271;28;20060;-38
2021/08/31 16:00:24;;;;;;;8.40;3.10;;;23.00;99.90;;;;;;12520469;28;20072;-38
2021/08/31 16:06:31;;;;;;;4.47;2.80;;;23.10;99.90;;;;;;12524586;28;20471;-37
2021/08/31 16:12:34;;;;;;;5.72;2.90;;;23.00;99.90;;;;;;12510629;28;20056;-39
2021/08/31 16:18:39;;;;;;;5.13;2.85;;;22.90;99.90;;;;;;12523650;28;20140;-39
2021/08/31 16:24:42;;;;;;;7.78;2.88;;;22.70;99.90;;;;;;12521748;28;20872;-39
2021/08/31 16:30:52;;;;;;;4.93;2.90;;;22.70;99.90;;;;;;12521658;28;20132;-44
2021/08/31 16:37:12;;;;;;;6.35;3.25;;;22.70;99.90;;;;;;12501557;28;20725;-39
2021/08/31 16:43:15;;;;;;;5.90;2.75;;;22.70;99.90;;;;;;12517329;28;20053;-39
2021/08/31 16:49:18;;;;;;;6.80;2.80;;;22.50;99.90;;;;;;12518155;28;20420;-40
2021/08/31 16:55:20;;;;;;;4.93;3.00;;;22.50;99.90;;;;;;12508509;28;20041;-37
2021/08/31 17:01:27;;;;;;;4.45;3.13;;;22.10;99.90;;;;;;12517569;28;20057;-41
2021/08/31 17:14:53;;;;;;;8.13;3.05;;;21.00;99.90;;;;;;12528550;28;20459;-38
2021/08/31 17:20:57;;;;;;;8.73;3.50;;;20.60;99.90;;;;;;12527387;28;20045;-38
2021/08/31 17:27:00;;;;;;;7.60;3.33;;;20.30;99.90;;;;;;12525354;28;20072;-37
2021/08/31 17:33:03;;;;;;;;;;;20.10;99.90;;;;;;12528991;28;20049;-38
2021/08/31 17:39:06;;;;;;;7.25;2.83;;;19.90;99.90;;;;;;12528748;28;20058;-38
2021/08/31 17:45:09;;;;;;;8.32;3.15;;;19.70;99.90;;;;;;12526921;28;20056;-40
2021/08/31 17:51:15;;;;;;;6.82;3.13;;;19.60;99.90;;;;;;12520561;28;20105;-39
2021/08/31 17:57:19;;;;;;;7.13;3.10;;;19.40;99.90;;;;;;12528088;28;20068;-37
2021/08/31 18:03:38;;;;;;;6.38;3.17;;;19.20;99.90;;;;;;12527364;28;20622;-37
2021/08/31 18:09:51;;;;;;;6.38;2.92;;;19.00;99.90;;;;;;12530164;28;20545;-37
2021/08/31 18:15:54;;;;;;;7.63;2.88;;;18.90;99.90;;;;;;12526105;28;20064;-37
2021/08/31 18:21:58;;;;;;;7.75;3.08;;;18.70;99.90;;;;;;12518229;28;20045;-37
2021/08/31 18:28:01;;;;;;;4.93;2.70;;;18.60;99.90;;;;;;12523507;28;20060;-37
2021/08/31 18:34:05;;;;;;;7.55;3.30;;;18.50;99.90;;;;;;12520495;28;20589;-37
2021/08/31 18:40:20;;;;;;;7.93;3.57;;;18.40;99.90;;;;;;12529855;28;20053;-38
2021/08/31 18:46:37;;;;;;;6.00;3.22;;;18.20;99.90;;;;;;12472513;28;20045;-38
2021/08/31 18:52:39;;;;;;;7.25;3.65;;;18.10;99.90;;;;;;12501266;28;20087;-37
2021/08/31 18:58:42;;;;;;;12.10;3.60;;;17.90;99.90;;;;;;12498415;28;20049;-37
2021/08/31 19:05:17;;;;;;;7.05;3.63;;;17.90;99.90;;;;;;12524555;28;20094;-37
2021/08/31 19:11:23;;;;;;;8.82;4.35;;;17.70;99.90;;;;;;12506263;28;20056;-37
2021/08/31 19:17:26;;;;;;;10.70;4.15;;;17.50;99.90;;;;;;12524741;28;20052;-38
2021/08/31 19:23:29;;;;;;;13.67;4.47;;;17.40;99.90;;;;;;12519301;28;20401;-40
2021/08/31 19:29:31;;;;;;;9.80;4.18;;;17.40;99.90;;;;;;12522266;28;20195;-37
2021/08/31 19:35:34;;;;;;;12.85;4.60;;;17.30;99.90;;;;;;12514641;28;20428;-38
2021/08/31 19:41:38;;;;;;;10.50;4.40;;;17.40;99.90;;;;;;12504456;28;20053;-39
2021/08/31 19:47:40;;;;;;;12.00;3.90;;;17.40;99.90;;;;;;12518994;28;20463;-37
2021/08/31 19:53:46;;;;;;;14.75;3.83;;;17.30;99.90;;;;;;12518623;28;20057;-37
2021/08/31 19:59:48;;;;;;;16.25;4.50;;;17.30;99.90;;;;;;12500020;28;20052;-37
2021/08/31 20:05:50;;;;;;;9.77;3.95;;;17.30;99.90;;;;;;12517694;28;20141;-40
2021/08/31 20:11:57;;;;;;;8.93;4.22;;;17.40;99.90;;;;;;12509127;28;20049;-37
2021/08/31 20:18:14;;;;;;;11.30;4.43;;;17.20;99.90;;;;;;12513969;28;20077;-38
2021/08/31 20:24:16;;;;;;;13.57;4.55;;;17.20;99.90;;;;;;12519291;28;20065;-38
2021/08/31 20:30:18;;;;;;;10.27;3.67;;;17.20;99.90;;;;;;12503461;28;20128;-38
2021/08/31 20:36:20;;;;;;;11.65;3.97;;;17.10;99.90;;;;;;12509365;28;20080;-38
2021/08/31 20:42:24;;;;;;;12.73;4.10;;;17.20;99.90;;;;;;12511918;28;20037;-37
2021/08/31 20:48:26;;;;;;;11.20;3.67;;;17.20;99.90;;;;;;12517121;28;20051;-37
2021/08/31 20:54:31;;;;;;;14.52;4.38;;;17.10;99.90;;;;;;12514805;28;20527;-38
2021/08/31 21:00:35;;;;;;;;;;;17.00;99.90;;;;;;12515013;28;20378;-37
2021/08/31 21:06:37;;;;;;;14.38;4.20;;;16.80;99.90;;;;;;12516404;28;19925;-38
2021/08/31 21:12:46;;;;;;;13.02;4.57;;;16.80;99.90;;;;;;12513083;28;20098;-37
2021/08/31 21:18:48;;;;;;;15.00;4.90;;;16.80;99.90;;;;;;12512178;28;20497;-37
2021/08/31 21:24:52;;;;;;;11.98;4.38;;;16.70;99.90;;;;;;12511341;28;20052;-37
2021/08/31 21:30:55;;;;;;;17.05;4.82;;;16.70;99.90;;;;;;12493912;28;20060;-37
2021/08/31 21:37:04;;;;;;;14.10;4.50;;;16.60;99.90;;;;;;12493732;28;20053;-37
2021/08/31 21:43:07;;;;;;;18.88;5.10;;;16.60;99.90;;;;;;12511714;28;20047;-39
2021/08/31 21:49:12;;;;;;;15.35;4.95;;;16.60;99.90;;;;;;12513216;28;20053;-37
2021/08/31 21:55:14;;;;;;;13.20;4.75;;;16.50;99.90;;;;;;12515294;28;20052;-37
2021/08/31 22:01:17;;;;;;;21.33;5.00;;;16.40;99.90;;;;;;12500169;28;20548;-37
2021/08/31 22:07:19;;;;;;;15.93;4.65;;;16.50;99.90;;;;;;12511589;28;20385;-39
2021/08/31 22:13:24;;;;;;;15.27;4.78;;;16.40;99.90;;;;;;12517866;28;20049;-37
2021/08/31 22:19:26;;;;;;;16.05;5.22;;;16.30;99.90;;;;;;12527180;28;20054;-37
2021/08/31 22:25:28;;;;;;;14.98;5.57;;;16.30;99.90;;;;;;12526259;28;20045;-38
2021/08/31 22:31:30;;;;;;;14.13;5.20;;;16.30;99.90;;;;;;12514315;28;20094;-37
2021/08/31 22:37:38;;;;;;;14.95;4.78;;;16.30;99.90;;;;;;12513133;28;20096;-37
2021/08/31 22:43:46;;;;;;;12.73;4.75;;;16.30;99.90;;;;;;12514925;28;20037;-37
2021/08/31 22:49:48;;;;;;;15.07;4.70;;;16.40;99.90;;;;;;12523973;28;20087;-37
2021/08/31 22:55:50;;;;;;;19.58;4.88;;;16.30;99.90;;;;;;12524703;28;20485;-37
2021/08/31 23:01:55;;;;;;;15.87;5.00;;;16.20;99.90;;;;;;12519782;28;20069;-37
2021/08/31 23:08:01;;;;;;;14.30;4.75;;;16.10;99.90;;;;;;12504256;28;20068;-37
2021/08/31 23:14:03;;;;;;;14.38;5.10;;;16.00;99.90;;;;;;12521974;28;20053;-37
2021/08/31 23:20:06;;;;;;;14.63;4.90;;;16.10;99.90;;;;;;12519982;28;20057;-37
2021/08/31 23:26:08;;;;;;;17.02;4.82;;;16.10;99.90;;;;;;12510697;28;20135;-38
2021/08/31 23:32:11;;;;;;;17.08;5.25;;;16.00;99.90;;;;;;12515362;28;20068;-38
2021/08/31 23:38:13;;;;;;;20.20;6.25;;;16.00;99.90;;;;;;12506553;28;20049;-37
2021/08/31 23:44:15;;;;;;;19.60;5.45;;;16.00;99.90;;;;;;12514542;28;20045;-38
2021/08/31 23:50:17;;;;;;;17.77;5.70;;;15.90;99.90;;;;;;12512756;28;20631;-37
2021/08/31 23:56:21;;;;;;;14.75;5.68;;;15.80;99.90;;;;;;12517810;28;20091;-37
